createdAt,value
2023-05-17T00:00:22.117Z,56.80
2023-05-17T00:01:24.894Z,56.70
2023-05-17T00:02:27.596Z,57.01
2023-05-17T00:03:30.285Z,57.25
2023-05-17T00:04:33.962Z,57.05
2023-05-17T00:05:36.428Z,57.12
2023-05-17T00:06:38.759Z,56.63
2023-05-17T00:07:41.217Z,57.23
2023-05-17T00:08:43.551Z,56.04
2023-05-17T00:09:45.874Z,55.24
2023-05-17T00:10:48.561Z,55.26
2023-05-17T00:11:51.249Z,55.79
2023-05-17T00:12:53.881Z,55.46
2023-05-17T00:13:56.514Z,54.49
2023-05-17T00:14:59.397Z,54.39
2023-05-17T00:16:02.051Z,54.30
2023-05-17T00:17:04.725Z,54.16
2023-05-17T00:18:07.416Z,53.69
2023-05-17T00:19:10.393Z,54.29
2023-05-17T00:20:13.482Z,54.58
2023-05-17T00:21:16.224Z,54.88
2023-05-17T00:22:18.885Z,53.74
2023-05-17T00:23:21.615Z,54.43
2023-05-17T00:24:24.309Z,53.83
2023-05-17T00:25:27.177Z,54.35
2023-05-17T00:26:30.118Z,53.85
2023-05-17T00:27:32.809Z,54.11
2023-05-17T00:28:35.467Z,54.46
2023-05-17T00:29:38.080Z,54.31
2023-05-17T00:30:40.856Z,54.53
2023-05-17T00:31:43.616Z,55.06
2023-05-17T00:32:48.185Z,55.21
2023-05-17T00:33:50.863Z,55.57
2023-05-17T00:34:53.557Z,55.92
2023-05-17T00:35:56.235Z,55.95
2023-05-17T00:36:58.933Z,58.79
2023-05-17T00:38:01.607Z,57.47
2023-05-17T00:39:04.396Z,55.94
2023-05-17T00:40:08.110Z,56.16
2023-05-17T00:41:10.903Z,55.76
2023-05-17T00:42:13.926Z,55.34
2023-05-17T00:43:16.575Z,55.95
2023-05-17T00:44:19.198Z,56.28
2023-05-17T00:45:21.864Z,56.32
2023-05-17T00:46:24.515Z,56.19
2023-05-17T00:47:27.227Z,56.04
2023-05-17T00:48:31.154Z,57.05
2023-05-17T00:49:34.423Z,58.25
2023-05-17T00:50:37.279Z,57.38
2023-05-17T00:51:40.437Z,58.88
2023-05-17T00:52:43.227Z,58.36
2023-05-17T00:53:46.570Z,57.40
2023-05-17T00:54:49.479Z,57.07
2023-05-17T00:55:52.647Z,57.32
2023-05-17T00:56:57.647Z,58.00
2023-05-17T00:58:00.838Z,58.45
2023-05-17T00:59:07.361Z,59.80
2023-05-17T01:00:10.509Z,59.52
2023-05-17T01:01:13.203Z,58.62
2023-05-17T01:02:16.191Z,57.92
2023-05-17T01:03:19.051Z,58.11
2023-05-17T01:04:21.998Z,57.91
2023-05-17T01:05:24.744Z,57.74
2023-05-17T01:06:33.880Z,57.55
2023-05-17T01:07:36.563Z,57.66
2023-05-17T01:08:39.505Z,57.52
2023-05-17T01:09:42.877Z,57.96
2023-05-17T01:11:06.215Z,57.70
2023-05-17T01:12:37.591Z,57.56
2023-05-17T01:14:10.585Z,58.32
2023-05-17T01:15:23.678Z,58.34
2023-05-17T01:16:40.072Z,58.46
2023-05-17T01:18:11.190Z,59.17
2023-05-17T01:19:42.265Z,58.25
2023-05-17T01:20:46.961Z,59.28
2023-05-17T01:22:05.489Z,60.68
2023-05-17T01:23:42.808Z,59.67
2023-05-17T01:24:51.662Z,61.99
2023-05-17T01:26:15.853Z,61.21
2023-05-17T01:27:20.357Z,59.29
2023-05-17T01:28:25.316Z,57.53
2023-05-17T01:29:30.652Z,56.81
2023-05-17T01:30:35.682Z,56.60
2023-05-17T01:31:39.815Z,56.76
2023-05-17T01:32:43.800Z,56.62
2023-05-17T01:33:46.996Z,56.78
2023-05-17T01:34:49.759Z,57.29
2023-05-17T01:35:52.423Z,57.03
2023-05-17T01:36:55.384Z,57.11
2023-05-17T01:37:58.100Z,57.75
2023-05-17T01:39:02.176Z,57.77
2023-05-17T01:40:06.188Z,58.21
2023-05-17T01:41:18.652Z,58.10
2023-05-17T01:42:35.828Z,58.59
2023-05-17T01:43:59.438Z,58.81
2023-05-17T01:45:49.650Z,58.82
2023-05-17T01:47:14.892Z,59.49
2023-05-17T01:48:32.393Z,59.74
2023-05-17T01:49:40.543Z,59.78
2023-05-17T01:50:46.536Z,59.64
2023-05-17T01:51:54.286Z,59.94
2023-05-17T01:53:04.061Z,59.45
2023-05-17T01:54:12.729Z,59.79
2023-05-17T01:55:44.012Z,59.59
2023-05-17T01:56:54.587Z,59.76
2023-05-17T01:57:58.303Z,60.08
2023-05-17T01:59:00.789Z,60.29
2023-05-17T02:00:06.729Z,59.87
2023-05-17T02:01:10.821Z,59.85
2023-05-17T02:02:14.532Z,60.07
2023-05-17T02:03:20.719Z,60.32
2023-05-17T02:04:23.487Z,60.14
2023-05-17T02:05:26.474Z,60.33
2023-05-17T02:06:29.857Z,60.69
2023-05-17T02:07:32.570Z,61.20
2023-05-17T02:08:35.249Z,60.78
2023-05-17T02:09:37.887Z,61.04
2023-05-17T02:10:41.149Z,61.27
2023-05-17T02:11:43.811Z,61.58
2023-05-17T02:12:46.967Z,61.02
2023-05-17T02:13:49.605Z,60.46
2023-05-17T02:14:52.329Z,60.24
2023-05-17T02:15:55.038Z,60.39
2023-05-17T02:16:57.817Z,60.52
2023-05-17T02:18:00.647Z,60.79
2023-05-17T02:19:03.388Z,60.55
2023-05-17T02:20:11.165Z,60.78
2023-05-17T02:21:13.992Z,60.56
2023-05-17T02:22:16.707Z,60.54
2023-05-17T02:23:19.337Z,60.73
2023-05-17T02:24:21.979Z,60.61
2023-05-17T02:25:24.769Z,60.85
2023-05-17T02:26:28.338Z,60.83
2023-05-17T02:27:31.325Z,60.75
2023-05-17T02:28:34.007Z,60.99
2023-05-17T02:29:36.683Z,60.39
2023-05-17T02:30:42.344Z,60.38
2023-05-17T02:31:45.162Z,60.77
2023-05-17T02:32:47.836Z,60.91
2023-05-17T02:33:50.582Z,60.81
2023-05-17T02:34:53.250Z,60.60
2023-05-17T02:35:55.981Z,60.64
2023-05-17T02:36:58.680Z,60.52
2023-05-17T02:38:01.386Z,60.18
2023-05-17T02:39:04.213Z,60.38
2023-05-17T02:40:10.190Z,60.42
2023-05-17T02:41:12.867Z,60.27
2023-05-17T02:42:16.056Z,60.34
2023-05-17T02:43:18.692Z,60.36
2023-05-17T02:44:21.353Z,60.42
2023-05-17T02:45:24.057Z,60.30
2023-05-17T02:46:26.743Z,60.24
2023-05-17T02:47:29.528Z,60.32
2023-05-17T02:48:32.292Z,60.10
2023-05-17T02:49:35.001Z,59.70
2023-05-17T02:50:38.209Z,58.99
2023-05-17T02:51:41.157Z,58.91
2023-05-17T02:52:43.814Z,58.47
2023-05-17T02:53:46.697Z,57.86
2023-05-17T02:54:49.460Z,57.86
2023-05-17T02:55:52.111Z,57.69
2023-05-17T02:56:54.757Z,57.44
2023-05-17T02:57:57.428Z,58.24
2023-05-17T02:59:01.884Z,57.68
2023-05-17T03:00:06.568Z,57.96
2023-05-17T03:01:10.073Z,57.78
2023-05-17T03:02:12.724Z,57.56
2023-05-17T03:03:15.483Z,57.41
2023-05-17T03:04:20.797Z,57.54
2023-05-17T03:05:23.470Z,57.40
2023-05-17T03:06:26.161Z,57.65
2023-05-17T03:07:28.845Z,57.72
2023-05-17T03:08:32.017Z,57.74
2023-05-17T03:09:34.999Z,57.78
2023-05-17T03:10:37.675Z,57.83
2023-05-17T03:11:40.290Z,57.61
2023-05-17T03:12:42.989Z,57.65
2023-05-17T03:13:46.993Z,57.92
2023-05-17T03:14:49.661Z,57.58
2023-05-17T03:15:52.317Z,58.32
2023-05-17T03:16:54.962Z,58.10
2023-05-17T03:17:57.793Z,58.43
2023-05-17T03:19:00.653Z,58.44
2023-05-17T03:20:03.477Z,58.30
2023-05-17T03:21:11.052Z,58.65
2023-05-17T03:22:13.687Z,58.41
2023-05-17T03:23:16.335Z,58.54
2023-05-17T03:24:19.210Z,58.85
2023-05-17T03:25:21.887Z,58.90
2023-05-17T03:26:25.503Z,58.75
2023-05-17T03:27:28.169Z,58.87
2023-05-17T03:28:30.841Z,58.86
2023-05-17T03:29:33.605Z,58.81
2023-05-17T03:30:36.462Z,58.40
2023-05-17T03:31:39.183Z,58.72
2023-05-17T03:32:41.976Z,58.57
2023-05-17T03:33:44.861Z,58.72
2023-05-17T03:34:47.540Z,58.50
2023-05-17T03:35:50.257Z,58.83
2023-05-17T03:36:52.920Z,59.13
2023-05-17T03:37:55.586Z,58.96
2023-05-17T03:38:58.221Z,59.42
2023-05-17T03:40:00.895Z,59.38
2023-05-17T03:41:04.612Z,59.32
2023-05-17T03:42:07.395Z,59.41
2023-05-17T03:43:10.048Z,59.76
2023-05-17T03:44:12.858Z,60.05
2023-05-17T03:45:17.045Z,60.22
2023-05-17T03:46:19.689Z,60.09
2023-05-17T03:47:25.212Z,60.13
2023-05-17T03:48:28.017Z,60.64
2023-05-17T03:49:30.788Z,59.94
2023-05-17T03:50:33.660Z,60.36
2023-05-17T03:51:36.568Z,60.04
2023-05-17T03:52:39.366Z,60.22
2023-05-17T03:53:43.917Z,60.22
2023-05-17T03:54:48.159Z,60.37
2023-05-17T03:55:51.042Z,60.89
2023-05-17T03:56:53.709Z,60.39
2023-05-17T03:57:56.409Z,60.84
2023-05-17T03:58:59.205Z,60.47
2023-05-17T04:00:01.915Z,60.68
2023-05-17T04:01:05.412Z,60.94
2023-05-17T04:02:08.125Z,60.65
2023-05-17T04:03:10.759Z,61.15
2023-05-17T04:04:13.467Z,60.52
2023-05-17T04:05:16.597Z,60.72
2023-05-17T04:06:19.280Z,60.69
2023-05-17T04:07:21.907Z,60.80
2023-05-17T04:08:24.525Z,61.10
2023-05-17T04:09:27.292Z,61.49
2023-05-17T04:10:30.052Z,61.52
2023-05-17T04:11:33.660Z,61.73
2023-05-17T04:12:36.352Z,61.58
2023-05-17T04:13:39.111Z,61.80
2023-05-17T04:14:41.925Z,62.15
2023-05-17T04:15:44.553Z,61.82
2023-05-17T04:16:47.339Z,61.73
2023-05-17T04:17:50.070Z,62.00
2023-05-17T04:18:54.463Z,62.13
2023-05-17T04:19:57.628Z,61.71
2023-05-17T04:21:00.357Z,62.22
2023-05-17T04:22:03.121Z,62.20
2023-05-17T04:23:05.872Z,62.04
2023-05-17T04:24:09.316Z,62.25
2023-05-17T04:25:12.640Z,62.32
2023-05-17T04:26:15.533Z,62.32
2023-05-17T04:27:18.190Z,62.67
2023-05-17T04:28:22.482Z,62.66
2023-05-17T04:29:25.220Z,62.70
2023-05-17T04:30:28.215Z,62.33
2023-05-17T04:31:32.646Z,62.71
2023-05-17T04:32:36.441Z,62.38
2023-05-17T04:33:38.838Z,62.45
2023-05-17T04:34:41.862Z,62.38
2023-05-17T04:35:44.961Z,62.79
2023-05-17T04:36:47.641Z,62.76
2023-05-17T04:37:50.279Z,62.87
2023-05-17T04:38:53.020Z,62.99
2023-05-17T04:39:56.922Z,62.99
2023-05-17T04:41:06.467Z,63.28
2023-05-17T04:42:09.696Z,62.78
2023-05-17T04:43:12.659Z,63.38
2023-05-17T04:44:15.341Z,63.70
2023-05-17T04:45:18.187Z,63.75
2023-05-17T04:46:20.855Z,63.59
2023-05-17T04:47:23.521Z,63.55
2023-05-17T04:48:28.074Z,63.96
2023-05-17T04:49:30.794Z,63.97
2023-05-17T04:50:33.467Z,63.95
2023-05-17T04:51:36.360Z,63.51
2023-05-17T04:52:39.132Z,63.70
2023-05-17T04:53:41.998Z,63.93
2023-05-17T04:54:44.652Z,64.24
2023-05-17T04:55:48.705Z,64.24
2023-05-17T04:56:51.460Z,64.08
2023-05-17T04:57:54.200Z,64.12
2023-05-17T04:58:56.886Z,64.26
2023-05-17T04:59:59.573Z,64.29
2023-05-17T05:01:02.192Z,64.60
2023-05-17T05:02:05.670Z,64.64
2023-05-17T05:03:08.436Z,64.30
2023-05-17T05:04:11.408Z,64.46
2023-05-17T05:05:14.476Z,64.41
2023-05-17T05:06:17.247Z,64.67
2023-05-17T05:07:19.943Z,64.98
2023-05-17T05:08:22.623Z,64.95
2023-05-17T05:09:25.308Z,64.73
2023-05-17T05:10:30.847Z,64.84
2023-05-17T05:11:33.624Z,64.97
2023-05-17T05:12:36.295Z,64.82
2023-05-17T05:13:39.515Z,64.97
2023-05-17T05:14:42.235Z,65.20
2023-05-17T05:15:45.436Z,65.07
2023-05-17T05:16:48.112Z,65.32
2023-05-17T05:17:51.444Z,65.28
2023-05-17T05:18:54.444Z,65.66
2023-05-17T05:19:57.501Z,65.35
2023-05-17T05:21:00.261Z,65.57
2023-05-17T05:22:03.184Z,65.72
2023-05-17T05:23:06.550Z,65.70
2023-05-17T05:24:09.455Z,65.76
2023-05-17T05:25:12.210Z,65.86
2023-05-17T05:26:14.867Z,65.87
2023-05-17T05:27:17.664Z,65.79
2023-05-17T05:28:20.301Z,66.09
2023-05-17T05:29:22.982Z,65.07
2023-05-17T05:30:25.697Z,65.38
2023-05-17T05:31:28.763Z,65.50
2023-05-17T05:32:31.457Z,65.39
2023-05-17T05:33:34.313Z,65.65
2023-05-17T05:34:37.045Z,65.25
2023-05-17T05:35:39.714Z,65.43
2023-05-17T05:36:42.457Z,65.42
2023-05-17T05:37:45.801Z,65.37
2023-05-17T05:38:49.291Z,65.35
2023-05-17T05:39:52.066Z,65.55
2023-05-17T05:40:54.805Z,65.85
2023-05-17T05:41:57.511Z,65.87
2023-05-17T05:43:00.135Z,65.57
2023-05-17T05:44:02.782Z,65.55
2023-05-17T05:45:05.838Z,65.13
2023-05-17T05:46:08.633Z,65.14
2023-05-17T05:47:11.310Z,64.94
2023-05-17T05:48:14.774Z,64.91
2023-05-17T05:49:17.470Z,65.52
2023-05-17T05:50:20.172Z,65.15
2023-05-17T05:51:22.964Z,65.41
2023-05-17T05:52:25.657Z,65.17
2023-05-17T05:53:28.740Z,65.09
2023-05-17T05:54:31.748Z,64.88
2023-05-17T05:55:34.399Z,64.51
2023-05-17T05:56:37.064Z,64.67
2023-05-17T05:57:39.687Z,64.58
2023-05-17T05:58:42.505Z,64.23
2023-05-17T05:59:45.122Z,63.84
2023-05-17T06:00:48.309Z,64.05
2023-05-17T06:01:52.356Z,63.85
2023-05-17T06:02:55.129Z,63.54
2023-05-17T06:03:58.000Z,62.89
2023-05-17T06:05:00.652Z,63.21
2023-05-17T06:06:03.332Z,63.65
2023-05-17T06:07:06.166Z,63.71
2023-05-17T06:08:08.927Z,63.06
2023-05-17T06:09:12.815Z,63.09
2023-05-17T06:10:15.477Z,63.30
2023-05-17T06:11:20.949Z,63.38
2023-05-17T06:12:23.571Z,63.20
2023-05-17T06:13:27.607Z,63.41
2023-05-17T06:14:30.271Z,62.91
2023-05-17T06:15:33.156Z,62.52
2023-05-17T06:16:35.916Z,62.48
2023-05-17T06:17:38.575Z,62.09
2023-05-17T06:18:41.488Z,61.94
2023-05-17T06:19:44.337Z,62.12
2023-05-17T06:20:47.323Z,62.10
2023-05-17T06:21:50.095Z,62.01
2023-05-17T06:22:52.790Z,61.78
2023-05-17T06:23:55.831Z,61.73
2023-05-17T06:25:01.237Z,61.65
2023-05-17T06:26:03.870Z,61.98
2023-05-17T06:27:07.818Z,61.43
2023-05-17T06:28:10.522Z,61.26
2023-05-17T06:29:13.176Z,61.79
2023-05-17T06:30:15.969Z,61.55
2023-05-17T06:31:19.755Z,61.30
2023-05-17T06:32:23.724Z,61.11
2023-05-17T06:33:26.498Z,61.42
2023-05-17T06:34:29.166Z,61.40
2023-05-17T06:35:40.535Z,61.11
2023-05-17T06:36:50.592Z,61.26
2023-05-17T06:37:53.368Z,61.00
2023-05-17T06:38:56.629Z,61.04
2023-05-17T06:40:16.519Z,61.13
2023-05-17T06:41:19.524Z,61.02
2023-05-17T06:42:27.930Z,60.86
2023-05-17T06:43:30.586Z,61.02
2023-05-17T06:44:33.272Z,60.28
2023-05-17T06:45:35.997Z,60.55
2023-05-17T06:46:38.843Z,60.23
2023-05-17T06:47:41.852Z,60.25
2023-05-17T06:48:44.725Z,60.08
2023-05-17T06:49:47.422Z,59.92
2023-05-17T06:50:50.070Z,59.87
2023-05-17T06:51:52.872Z,59.89
2023-05-17T06:52:55.538Z,59.15
2023-05-17T06:53:58.536Z,58.97
2023-05-17T06:55:01.440Z,59.19
2023-05-17T06:56:04.188Z,58.77
2023-05-17T06:57:07.346Z,58.95
2023-05-17T06:58:10.272Z,58.92
2023-05-17T06:59:13.007Z,58.80
2023-05-17T07:00:16.160Z,59.05
2023-05-17T07:01:19.311Z,58.88
2023-05-17T07:02:21.981Z,58.78
2023-05-17T07:03:24.757Z,58.19
2023-05-17T07:04:28.008Z,57.81
2023-05-17T07:05:31.629Z,57.80
2023-05-17T07:06:34.485Z,57.96
2023-05-17T07:07:37.259Z,57.87
2023-05-17T07:08:41.285Z,57.47
2023-05-17T07:09:44.053Z,57.81
2023-05-17T07:10:46.713Z,57.54
2023-05-17T07:11:49.522Z,57.54
2023-05-17T07:12:54.054Z,57.68
2023-05-17T07:13:56.720Z,57.38
2023-05-17T07:14:59.388Z,57.59
2023-05-17T07:16:02.078Z,57.36
2023-05-17T07:17:04.889Z,57.64
2023-05-17T07:18:07.632Z,57.50
2023-05-17T07:19:10.484Z,57.15
2023-05-17T07:20:13.688Z,57.22
2023-05-17T07:21:16.521Z,57.12
2023-05-17T07:22:20.292Z,57.09
2023-05-17T07:23:25.060Z,57.08
2023-05-17T07:24:27.703Z,56.67
2023-05-17T07:25:30.634Z,56.43
2023-05-17T07:26:33.602Z,56.22
2023-05-17T07:27:36.469Z,56.36
2023-05-17T07:28:39.106Z,56.52
2023-05-17T07:29:42.770Z,56.31
2023-05-17T07:30:45.519Z,56.28
2023-05-17T07:31:48.170Z,56.00
2023-05-17T07:32:52.211Z,55.97
2023-05-17T07:33:54.963Z,55.98
2023-05-17T07:34:57.628Z,55.95
2023-05-17T07:36:00.458Z,55.94
2023-05-17T07:37:03.973Z,55.80
2023-05-17T07:38:09.082Z,55.87
2023-05-17T07:39:11.716Z,56.21
2023-05-17T07:40:14.965Z,56.06
2023-05-17T07:42:51.921Z,56.28
2023-05-17T07:43:54.627Z,56.21
2023-05-17T07:45:00.123Z,56.12
2023-05-17T07:46:02.774Z,56.09
2023-05-17T07:47:05.812Z,56.34
2023-05-17T07:48:08.656Z,56.53
2023-05-17T07:49:11.639Z,56.47
2023-05-17T07:50:14.412Z,56.42
2023-05-17T07:51:17.322Z,56.84
2023-05-17T07:52:19.953Z,56.62
2023-05-17T07:53:22.624Z,57.41
2023-05-17T07:54:28.703Z,57.18
2023-05-17T07:55:31.463Z,57.72
2023-05-17T07:56:37.287Z,56.70
2023-05-17T07:57:39.936Z,56.27
2023-05-17T07:58:42.736Z,56.21
2023-05-17T07:59:45.370Z,56.45
2023-05-17T08:00:48.103Z,56.32
2023-05-17T08:01:51.080Z,56.09
2023-05-17T08:02:53.892Z,56.43
2023-05-17T08:03:56.673Z,56.32
2023-05-17T08:04:59.363Z,56.02
2023-05-17T08:06:02.384Z,55.88
2023-05-17T08:07:05.347Z,55.73
2023-05-17T08:08:08.037Z,55.95
2023-05-17T08:09:11.624Z,55.40
2023-05-17T08:10:14.322Z,55.27
2023-05-17T08:11:17.384Z,55.27
2023-05-17T08:12:20.035Z,54.99
2023-05-17T08:13:24.122Z,54.41
2023-05-17T08:14:27.546Z,54.45
2023-05-17T08:15:30.795Z,54.64
2023-05-17T08:16:33.722Z,54.45
2023-05-17T08:17:36.697Z,54.70
2023-05-17T08:18:39.627Z,54.69
2023-05-17T08:19:42.661Z,54.27
2023-05-17T08:20:47.486Z,54.51
2023-05-17T08:21:50.254Z,54.73
2023-05-17T08:22:55.930Z,54.34
2023-05-17T08:23:58.694Z,54.63
2023-05-17T08:25:01.608Z,54.95
2023-05-17T08:26:04.378Z,55.04
2023-05-17T08:27:07.154Z,54.58
2023-05-17T08:28:09.793Z,54.94
2023-05-17T08:29:12.432Z,54.43
2023-05-17T08:30:27.879Z,54.04
2023-05-17T08:31:32.808Z,53.74
2023-05-17T08:32:35.589Z,54.29
2023-05-17T08:33:38.316Z,54.87
2023-05-17T08:34:41.076Z,54.60
2023-05-17T08:35:43.955Z,54.83
2023-05-17T08:36:46.769Z,54.58
2023-05-17T08:37:49.491Z,54.85
2023-05-17T08:38:53.115Z,56.19
2023-05-17T08:39:55.825Z,56.16
2023-05-17T08:41:00.312Z,55.84
2023-05-17T08:42:03.720Z,58.17
2023-05-17T08:43:08.742Z,58.11
2023-05-17T08:44:12.094Z,57.78
2023-05-17T08:45:15.796Z,56.96
2023-05-17T08:46:24.242Z,55.97
2023-05-17T08:47:30.464Z,56.05
2023-05-17T08:48:37.240Z,60.64
2023-05-17T08:49:41.407Z,57.80
2023-05-17T08:50:45.625Z,56.38
2023-05-17T08:51:52.390Z,57.86
2023-05-17T08:52:57.169Z,59.27
2023-05-17T08:54:00.542Z,59.52
2023-05-17T08:55:23.140Z,60.61
2023-05-17T08:56:26.672Z,58.03
2023-05-17T08:57:31.027Z,58.99
2023-05-17T08:58:48.065Z,59.64
2023-05-17T09:00:01.520Z,59.92
2023-05-17T09:01:04.932Z,60.52
2023-05-17T09:02:07.894Z,59.12
2023-05-17T09:03:14.246Z,60.75
2023-05-17T09:04:19.352Z,59.37
2023-05-17T09:05:22.515Z,57.09
2023-05-17T09:06:25.283Z,56.44
2023-05-17T09:07:27.925Z,55.04
2023-05-17T09:08:33.348Z,54.95
2023-05-17T09:09:36.054Z,55.10
2023-05-17T09:10:38.845Z,56.93
2023-05-17T09:11:41.513Z,57.47
2023-05-17T09:12:45.173Z,57.88
2023-05-17T09:13:47.861Z,56.78
2023-05-17T09:14:50.793Z,56.81
2023-05-17T09:15:54.995Z,59.97
2023-05-17T09:16:58.609Z,61.98
2023-05-17T09:18:01.506Z,57.44
2023-05-17T09:19:06.889Z,55.97
2023-05-17T09:20:11.506Z,55.18
2023-05-17T09:21:14.465Z,54.85
2023-05-17T09:22:20.660Z,54.81
2023-05-17T09:23:23.914Z,54.96
2023-05-17T09:24:30.966Z,54.99
2023-05-17T09:25:34.234Z,55.13
2023-05-17T09:26:44.229Z,55.30
2023-05-17T09:27:46.827Z,56.60
2023-05-17T09:28:49.632Z,56.43
2023-05-17T09:29:55.416Z,57.46
2023-05-17T09:30:58.127Z,57.09
2023-05-17T09:32:17.845Z,59.15
2023-05-17T09:33:22.430Z,61.58
2023-05-17T09:34:26.027Z,61.61
2023-05-17T09:35:30.883Z,58.88
2023-05-17T09:36:34.192Z,57.66
2023-05-17T09:37:39.642Z,57.07
2023-05-17T09:38:42.357Z,58.07
2023-05-17T09:39:46.782Z,59.50
2023-05-17T09:40:49.584Z,60.22
2023-05-17T09:41:57.876Z,60.14
2023-05-17T09:43:01.330Z,57.38
2023-05-17T09:44:09.889Z,55.76
2023-05-17T09:45:15.016Z,55.49
2023-05-17T09:46:17.743Z,56.81
2023-05-17T09:47:24.806Z,56.58
2023-05-17T09:48:31.523Z,60.21
2023-05-17T09:49:34.342Z,59.03
2023-05-17T09:50:36.994Z,57.08
2023-05-17T09:51:48.206Z,57.99
2023-05-17T09:52:51.283Z,57.96
2023-05-17T09:53:55.478Z,54.37
2023-05-17T09:55:01.893Z,54.11
2023-05-17T09:56:06.405Z,54.38
2023-05-17T09:57:10.892Z,55.24
2023-05-17T09:58:13.576Z,56.73
2023-05-17T09:59:17.382Z,55.02
2023-05-17T10:00:21.379Z,53.99
2023-05-17T10:01:29.714Z,53.87
2023-05-17T10:02:34.552Z,53.02
2023-05-17T10:03:38.842Z,52.97
2023-05-17T10:04:42.724Z,53.02
2023-05-17T10:05:46.459Z,52.98
2023-05-17T10:06:52.533Z,53.03
2023-05-17T10:07:57.059Z,53.12
2023-05-17T10:09:01.520Z,52.11
2023-05-17T10:10:05.155Z,51.80
2023-05-17T10:11:10.640Z,51.88
2023-05-17T10:12:17.492Z,51.26
2023-05-17T10:13:26.280Z,50.58
2023-05-17T10:14:34.373Z,50.09
2023-05-17T10:15:39.174Z,50.55
2023-05-17T10:16:43.525Z,50.07
2023-05-17T10:17:52.292Z,50.02
2023-05-17T10:18:55.428Z,49.65
2023-05-17T10:19:59.351Z,50.37
2023-05-17T10:21:02.694Z,50.59
2023-05-17T10:22:21.567Z,51.51
2023-05-17T10:23:28.123Z,51.61
2023-05-17T10:24:32.164Z,51.79
2023-05-17T10:25:36.177Z,50.82
2023-05-17T10:26:39.466Z,51.31
2023-05-17T10:27:42.448Z,51.63
2023-05-17T10:28:46.957Z,51.13
2023-05-17T10:29:50.939Z,50.82
2023-05-17T10:30:55.436Z,51.08
2023-05-17T10:31:59.452Z,51.06
2023-05-17T10:33:03.624Z,51.35
2023-05-17T10:34:09.426Z,52.76
2023-05-17T10:35:15.964Z,54.44
2023-05-17T10:36:19.034Z,55.39
2023-05-17T10:37:23.726Z,53.27
2023-05-17T10:38:38.806Z,52.57
2023-05-17T10:39:47.285Z,52.68
2023-05-17T10:40:52.189Z,53.54
2023-05-17T10:42:13.645Z,56.33
2023-05-17T10:43:18.496Z,55.98
2023-05-17T10:44:22.590Z,54.37
2023-05-17T10:45:26.442Z,52.42
2023-05-17T10:46:30.429Z,51.77
2023-05-17T10:47:34.837Z,51.36
2023-05-17T10:48:38.208Z,50.38
2023-05-17T10:49:42.146Z,50.53
2023-05-17T10:50:54.591Z,49.60
2023-05-17T10:52:13.913Z,50.38
2023-05-17T10:53:16.820Z,50.58
2023-05-17T10:54:19.740Z,50.96
2023-05-17T10:55:29.034Z,51.41
2023-05-17T10:56:33.081Z,51.90
2023-05-17T10:58:45.495Z,51.40
2023-05-17T11:00:02.223Z,50.28
2023-05-17T11:01:07.797Z,50.55
2023-05-17T11:02:11.074Z,50.38
2023-05-17T11:03:17.233Z,50.88
2023-05-17T11:04:34.029Z,49.91
2023-05-17T11:05:36.804Z,50.31
2023-05-17T11:06:41.473Z,50.70
2023-05-17T11:07:44.138Z,51.19
2023-05-17T11:09:08.656Z,51.14
2023-05-17T11:10:13.111Z,51.59
2023-05-17T11:11:19.747Z,51.22
2023-05-17T11:12:31.216Z,49.99
2023-05-17T11:13:34.753Z,50.00
2023-05-17T11:14:46.495Z,50.17
2023-05-17T11:16:05.408Z,49.64
2023-05-17T11:17:15.211Z,50.11
2023-05-17T11:18:29.484Z,50.63
2023-05-17T11:19:34.109Z,50.35
2023-05-17T11:20:37.749Z,50.54
2023-05-17T11:21:50.575Z,50.90
2023-05-17T11:23:00.385Z,50.67
2023-05-17T11:24:05.645Z,51.31
2023-05-17T11:25:11.195Z,51.67
2023-05-17T11:26:19.263Z,51.97
2023-05-17T11:27:27.870Z,51.85
2023-05-17T11:28:36.065Z,49.75
2023-05-17T11:29:42.833Z,49.75
2023-05-17T11:30:51.915Z,50.19
2023-05-17T11:31:54.782Z,50.11
2023-05-17T11:33:11.097Z,49.04
2023-05-17T11:34:20.055Z,48.50
2023-05-17T11:35:27.357Z,49.18
2023-05-17T11:36:30.142Z,49.25
2023-05-17T11:37:33.185Z,49.06
2023-05-17T11:38:36.074Z,48.85
2023-05-17T11:39:58.610Z,48.51
2023-05-17T11:41:26.485Z,49.00
2023-05-17T11:42:30.074Z,50.01
2023-05-17T11:43:34.568Z,50.00
2023-05-17T11:44:38.449Z,49.61
2023-05-17T11:45:58.672Z,48.24
2023-05-17T11:47:11.928Z,48.35
2023-05-17T11:48:15.706Z,47.29
2023-05-17T11:49:34.254Z,47.24
2023-05-17T11:50:39.609Z,47.24
2023-05-17T11:51:43.255Z,47.73
2023-05-17T11:52:45.982Z,48.14
2023-05-17T11:53:49.779Z,48.00
2023-05-17T11:54:52.752Z,48.09
2023-05-17T11:55:56.545Z,48.06
2023-05-17T11:57:00.245Z,47.68
2023-05-17T11:58:04.690Z,47.50
2023-05-17T11:59:07.412Z,47.46
2023-05-17T12:00:10.693Z,48.00
2023-05-17T12:01:13.384Z,48.29
2023-05-17T12:02:32.963Z,48.57
2023-05-17T12:03:36.688Z,48.36
2023-05-17T12:04:40.300Z,48.66
2023-05-17T12:05:43.317Z,48.92
2023-05-17T12:06:46.285Z,48.90
2023-05-17T12:07:53.339Z,49.03
2023-05-17T12:08:56.096Z,48.55
2023-05-17T12:09:58.817Z,47.63
2023-05-17T12:11:02.543Z,48.01
2023-05-17T12:12:05.511Z,47.89
2023-05-17T12:13:08.200Z,48.13
2023-05-17T12:14:11.545Z,48.15
2023-05-17T12:15:19.820Z,47.09
2023-05-17T12:16:24.384Z,47.65
2023-05-17T12:17:37.839Z,47.23
2023-05-17T12:18:51.544Z,47.55
2023-05-17T12:19:55.864Z,47.98
2023-05-17T12:20:59.509Z,48.17
2023-05-17T12:22:15.636Z,49.08
2023-05-17T12:23:18.338Z,49.24
2023-05-17T12:24:21.166Z,49.43
2023-05-17T12:25:26.180Z,48.72
2023-05-17T12:26:28.870Z,48.77
2023-05-17T12:27:31.942Z,48.23
2023-05-17T12:28:36.302Z,47.57
2023-05-17T12:29:40.245Z,47.48
2023-05-17T12:30:43.372Z,48.18
2023-05-17T12:31:50.553Z,48.78
2023-05-17T12:32:53.646Z,49.41
2023-05-17T12:33:59.654Z,49.51
2023-05-17T12:35:02.615Z,50.21
2023-05-17T12:36:06.367Z,49.78
2023-05-17T12:37:11.146Z,49.85
2023-05-17T12:38:14.237Z,49.68
2023-05-17T12:39:18.626Z,49.11
2023-05-17T12:40:21.723Z,48.27
2023-05-17T12:41:29.403Z,47.97
2023-05-17T12:42:33.461Z,48.14
2023-05-17T12:43:38.322Z,48.41
2023-05-17T12:44:41.089Z,49.01
2023-05-17T12:45:43.859Z,49.06
2023-05-17T12:46:50.968Z,49.06
2023-05-17T12:47:53.778Z,48.67
2023-05-17T12:48:56.527Z,49.41
2023-05-17T12:50:03.841Z,49.18
2023-05-17T12:51:09.124Z,49.48
2023-05-17T12:52:12.666Z,49.37
2023-05-17T12:53:15.806Z,49.50
2023-05-17T12:54:29.465Z,49.40
2023-05-17T12:55:38.438Z,49.35
2023-05-17T12:56:50.235Z,49.38
2023-05-17T12:57:54.538Z,49.00
2023-05-17T12:59:15.279Z,49.44
2023-05-17T13:00:18.879Z,49.68
2023-05-17T13:01:21.576Z,50.42
2023-05-17T13:02:24.445Z,50.45
2023-05-17T13:03:28.101Z,50.40
2023-05-17T13:04:32.775Z,50.65
2023-05-17T13:05:36.024Z,50.37
2023-05-17T13:06:51.424Z,48.71
2023-05-17T13:07:54.359Z,48.95
2023-05-17T13:09:03.133Z,49.25
2023-05-17T13:10:06.090Z,48.37
2023-05-17T13:11:10.037Z,48.87
2023-05-17T13:12:12.668Z,48.79
2023-05-17T13:13:21.749Z,48.61
2023-05-17T13:14:46.218Z,48.51
2023-05-17T13:15:49.221Z,48.94
2023-05-17T13:16:52.467Z,48.64
2023-05-17T13:17:55.216Z,48.92
2023-05-17T13:18:58.149Z,48.88
2023-05-17T13:20:01.306Z,48.71
2023-05-17T13:21:04.146Z,48.82
2023-05-17T13:22:07.815Z,48.67
2023-05-17T13:23:11.070Z,49.09
2023-05-17T13:24:13.717Z,49.36
2023-05-17T13:25:16.833Z,49.97
2023-05-17T13:26:20.089Z,50.56
2023-05-17T13:27:22.808Z,51.21
2023-05-17T13:28:25.977Z,52.03
2023-05-17T13:29:38.894Z,52.03
2023-05-17T13:30:46.428Z,51.40
2023-05-17T13:31:49.081Z,50.66
2023-05-17T13:32:51.951Z,49.43
2023-05-17T13:33:54.855Z,49.68
2023-05-17T13:34:57.810Z,50.15
2023-05-17T13:36:00.522Z,49.85
2023-05-17T13:37:03.256Z,48.35
2023-05-17T13:38:05.983Z,47.18
2023-05-17T13:39:08.687Z,47.11
2023-05-17T13:40:11.910Z,47.06
2023-05-17T13:41:14.578Z,47.77
2023-05-17T13:42:18.108Z,47.97
2023-05-17T13:43:20.829Z,47.47
2023-05-17T13:44:23.579Z,47.86
2023-05-17T13:45:26.315Z,47.15
2023-05-17T13:46:29.032Z,47.36
2023-05-17T13:47:32.729Z,47.35
2023-05-17T13:48:35.361Z,47.54
2023-05-17T13:49:37.795Z,46.69
2023-05-17T13:50:41.374Z,46.74
2023-05-17T13:51:44.291Z,46.85
2023-05-17T13:52:46.982Z,46.41
2023-05-17T13:53:50.022Z,47.01
2023-05-17T13:54:52.781Z,47.60
2023-05-17T13:55:55.432Z,48.05